createdAt,value
2018-03-27T00:00:22.258Z,101013.92
2018-03-27T00:02:49.719Z,101015.94
2018-03-27T00:05:17.287Z,101012.59
2018-03-27T00:07:44.761Z,101015.48
2018-03-27T00:10:12.235Z,101018.28
2018-03-27T00:12:40.054Z,101016.08
2018-03-27T00:15:07.607Z,101017.62
2018-03-27T00:17:35.075Z,101017.56
2018-03-27T00:20:02.537Z,101017.92
2018-03-27T00:22:30.044Z,101020.19
2018-03-27T00:24:57.501Z,101017.09
2018-03-27T00:27:36.890Z,101025.59
2018-03-27T00:30:16.213Z,101020.09
2018-03-27T00:32:55.494Z,101020.46
2018-03-27T00:35:34.886Z,101019.30
2018-03-27T00:38:14.178Z,101025.58
2018-03-27T00:40:42.861Z,101030.17
2018-03-27T00:43:13.122Z,101034.39
2018-03-27T00:45:40.684Z,101026.00
2018-03-27T00:48:08.189Z,101030.63
2018-03-27T00:50:35.706Z,101025.62
2018-03-27T00:53:03.320Z,101039.25
2018-03-27T00:55:30.815Z,101034.25
2018-03-27T00:57:58.269Z,101041.78
2018-03-27T01:00:25.784Z,101030.37
2018-03-27T01:02:53.250Z,101034.05
2018-03-27T01:05:20.748Z,101037.13
2018-03-27T01:07:48.204Z,101034.35
2018-03-27T01:10:15.666Z,101041.59
2018-03-27T01:12:43.218Z,101038.98
2018-03-27T01:15:10.674Z,101040.31
2018-03-27T01:17:38.136Z,101037.07
2018-03-27T01:20:05.653Z,101038.05
2018-03-27T01:22:33.122Z,101035.11
2018-03-27T01:25:00.661Z,101036.77
2018-03-27T01:27:28.163Z,101035.42
2018-03-27T01:29:55.718Z,101036.03
2018-03-27T01:32:23.173Z,101029.91
2018-03-27T01:34:50.747Z,101030.93
2018-03-27T01:37:18.265Z,101029.08
2018-03-27T01:39:45.763Z,101031.51
2018-03-27T01:42:13.222Z,101034.33
2018-03-27T01:44:40.774Z,101041.55
2018-03-27T01:47:08.330Z,101046.27
2018-03-27T01:49:35.792Z,101040.91
2018-03-27T01:52:03.282Z,101039.84
2018-03-27T01:54:30.741Z,101042.09
2018-03-27T01:56:58.195Z,101044.67
2018-03-27T01:59:25.687Z,101039.78
2018-03-27T02:01:53.139Z,101043.37
2018-03-27T02:04:20.634Z,101040.95
2018-03-27T02:06:48.287Z,101038.84
2018-03-27T02:09:15.733Z,101038.84
2018-03-27T02:11:48.946Z,101035.34
2018-03-27T02:14:22.003Z,101032.41
2018-03-27T02:16:55.094Z,101035.92
2018-03-27T02:19:28.266Z,101036.04
2018-03-27T02:21:55.186Z,101032.18
2018-03-27T02:24:26.593Z,101036.25
2018-03-27T02:26:54.069Z,101036.55
2018-03-27T02:29:21.554Z,101038.59
2018-03-27T02:31:49.016Z,101033.97
2018-03-27T02:34:16.595Z,101031.03
2018-03-27T02:36:44.070Z,101036.23
2018-03-27T02:39:11.612Z,101039.33
2018-03-27T02:41:39.095Z,101031.52
2018-03-27T02:44:06.550Z,101037.44
2018-03-27T02:46:34.044Z,101038.53
2018-03-27T02:49:01.595Z,101040.37
2018-03-27T02:51:29.050Z,101045.79
2018-03-27T02:53:56.549Z,101044.30
2018-03-27T02:56:24.083Z,101044.55
2018-03-27T02:58:51.535Z,101044.18
2018-03-27T03:01:19.006Z,101040.47
2018-03-27T03:03:46.471Z,101033.02
2018-03-27T03:06:13.993Z,101047.18
2018-03-27T03:08:41.478Z,101039.30
2018-03-27T03:11:08.966Z,101034.30
2018-03-27T03:13:36.465Z,101038.88
2018-03-27T03:16:03.945Z,101040.98
2018-03-27T03:18:31.415Z,101034.92
2018-03-27T03:20:58.986Z,101033.11
2018-03-27T03:23:26.445Z,101028.00
2018-03-27T03:25:53.903Z,101032.09
2018-03-27T03:28:21.446Z,101024.88
2018-03-27T03:30:48.902Z,101021.52
2018-03-27T03:33:16.368Z,101021.78
2018-03-27T03:35:43.870Z,101023.37
2018-03-27T03:38:11.343Z,101018.58
2018-03-27T03:40:38.795Z,101025.99
2018-03-27T03:43:06.283Z,101023.42
2018-03-27T03:45:33.762Z,101023.50
2018-03-27T03:48:01.220Z,101018.39
2018-03-27T03:50:28.694Z,101021.23
2018-03-27T03:52:56.172Z,101024.74
2018-03-27T03:55:23.646Z,101025.67
2018-03-27T03:57:51.198Z,101018.24
2018-03-27T04:00:18.762Z,101020.14
2018-03-27T04:02:46.254Z,101021.41
2018-03-27T04:05:13.724Z,101022.12
2018-03-27T04:07:41.229Z,101014.19
2018-03-27T04:10:08.690Z,101014.30
2018-03-27T04:12:36.152Z,101018.17
2018-03-27T04:15:03.714Z,101019.20
2018-03-27T04:17:31.163Z,101021.16
2018-03-27T04:19:58.626Z,101025.70
2018-03-27T04:22:26.106Z,101014.09
2018-03-27T04:24:53.562Z,101022.30
2018-03-27T04:27:21.022Z,101020.39
2018-03-27T04:29:48.502Z,101027.37
2018-03-27T04:32:15.962Z,101026.60
2018-03-27T04:34:43.418Z,101023.00
2018-03-27T04:37:10.909Z,101024.44
2018-03-27T04:39:38.377Z,101032.47
2018-03-27T04:42:05.842Z,101026.03
2018-03-27T04:44:33.391Z,101032.21
2018-03-27T04:47:00.901Z,101030.78
2018-03-27T04:49:28.521Z,101025.27
2018-03-27T04:51:56.009Z,101024.50
2018-03-27T04:54:23.470Z,101023.00
2018-03-27T04:56:50.927Z,101021.09
2018-03-27T04:59:18.425Z,101029.95
2018-03-27T05:01:45.877Z,101035.14
2018-03-27T05:04:13.365Z,101038.49
2018-03-27T05:06:40.840Z,101037.53
2018-03-27T05:09:08.395Z,101045.66
2018-03-27T05:11:35.883Z,101040.46
2018-03-27T05:14:03.444Z,101049.45
2018-03-27T05:16:30.957Z,101038.94
2018-03-27T05:18:58.506Z,101047.47
2018-03-27T05:21:25.978Z,101056.26
2018-03-27T05:23:53.534Z,101056.17
2018-03-27T05:26:21.009Z,101053.75
2018-03-27T05:28:48.464Z,101054.92
2018-03-27T05:31:16.006Z,101059.02
2018-03-27T05:33:43.504Z,101061.52
2018-03-27T05:36:10.984Z,101061.26
2018-03-27T05:38:38.479Z,101059.84
2018-03-27T05:41:05.978Z,101060.86
2018-03-27T05:43:33.513Z,101067.56
2018-03-27T05:46:00.993Z,101067.88
2018-03-27T05:48:28.546Z,101070.03
2018-03-27T05:50:56.092Z,101064.43
2018-03-27T05:53:23.640Z,101058.63
2018-03-27T05:55:51.147Z,101060.64
2018-03-27T05:58:18.692Z,101060.73
2018-03-27T06:00:46.203Z,101065.58
2018-03-27T06:03:13.717Z,101068.73
2018-03-27T06:05:41.229Z,101063.19
2018-03-27T06:08:08.697Z,101067.94
2018-03-27T06:10:36.153Z,101068.24
2018-03-27T06:13:03.646Z,101065.30
2018-03-27T06:15:31.141Z,101067.99
2018-03-27T06:17:58.594Z,101067.36
2018-03-27T06:20:26.065Z,101071.59
2018-03-27T06:22:53.527Z,101079.16
2018-03-27T06:25:21.050Z,101080.64
2018-03-27T06:27:48.582Z,101070.66
2018-03-27T06:30:16.142Z,101074.63
2018-03-27T06:32:43.690Z,101069.68
2018-03-27T06:35:11.146Z,101071.37
2018-03-27T06:37:38.596Z,101073.49
2018-03-27T06:40:06.131Z,101074.81
2018-03-27T06:42:33.614Z,101083.66
2018-03-27T06:45:01.092Z,101075.31
2018-03-27T06:47:28.545Z,101081.87
2018-03-27T06:49:56.040Z,101077.66
2018-03-27T06:52:23.491Z,101080.96
2018-03-27T06:54:50.953Z,101072.97
2018-03-27T06:57:18.430Z,101075.47
2018-03-27T06:59:45.884Z,101071.67
2018-03-27T07:02:13.362Z,101074.75
2018-03-27T07:04:40.891Z,101071.70
2018-03-27T07:07:08.372Z,101068.31
2018-03-27T07:09:35.868Z,101074.11
2018-03-27T07:12:03.357Z,101073.47
2018-03-27T07:14:30.814Z,101078.92
2018-03-27T07:16:58.301Z,101075.33
2018-03-27T07:19:25.847Z,101070.98
2018-03-27T07:21:53.330Z,101071.33
2018-03-27T07:24:20.862Z,101068.20
2018-03-27T07:26:48.355Z,101072.50
2018-03-27T07:29:15.815Z,101067.50
2018-03-27T07:31:43.271Z,101067.92
2018-03-27T07:34:10.793Z,101060.81
2018-03-27T07:36:38.257Z,101056.34
2018-03-27T07:39:05.746Z,101051.55
2018-03-27T07:41:33.269Z,101054.41
2018-03-27T07:44:00.739Z,101059.52
2018-03-27T07:46:28.231Z,101057.95
2018-03-27T07:48:55.729Z,101067.81
2018-03-27T07:51:23.194Z,101066.15
2018-03-27T07:53:50.651Z,101069.16
2018-03-27T07:56:18.139Z,101066.00
2018-03-27T07:58:45.671Z,101073.02
2018-03-27T08:01:13.138Z,101063.50
2018-03-27T08:03:40.638Z,101065.13
2018-03-27T08:06:08.102Z,101055.95
2018-03-27T08:08:35.566Z,101062.02
2018-03-27T08:11:03.066Z,101068.01
2018-03-27T08:13:30.522Z,101061.17
2018-03-27T08:15:58.124Z,101065.49
2018-03-27T08:18:25.656Z,101063.56
2018-03-27T08:20:53.197Z,101064.93
2018-03-27T08:23:20.686Z,101056.00
2018-03-27T08:25:48.155Z,101058.23
2018-03-27T08:28:15.611Z,101068.70
2018-03-27T08:30:43.088Z,101067.81
2018-03-27T08:33:10.555Z,101063.36
2018-03-27T08:35:38.024Z,101059.25
2018-03-27T08:38:05.550Z,101063.33
2018-03-27T08:40:33.077Z,101057.58
2018-03-27T08:43:00.673Z,101057.30
2018-03-27T08:45:28.147Z,101061.67
2018-03-27T08:47:55.652Z,101053.52
2018-03-27T08:50:23.150Z,101055.88
2018-03-27T08:52:50.698Z,101059.74
2018-03-27T08:55:18.185Z,101059.89
2018-03-27T08:57:45.663Z,101055.16
2018-03-27T09:00:13.118Z,101059.30
2018-03-27T09:02:40.694Z,101055.34
2018-03-27T09:05:08.181Z,101055.69
2018-03-27T09:07:35.698Z,101052.11
2018-03-27T09:10:03.186Z,101051.61
2018-03-27T09:12:30.666Z,101047.73
2018-03-27T09:14:58.123Z,101044.48
2018-03-27T09:17:25.587Z,101046.75
2018-03-27T09:19:53.110Z,101041.22
2018-03-27T09:22:20.587Z,101039.66
2018-03-27T09:24:48.047Z,101032.40
2018-03-27T09:27:15.521Z,101037.29
2018-03-27T09:29:42.989Z,101048.09
2018-03-27T09:32:10.449Z,101043.34
2018-03-27T09:34:37.929Z,101041.97
2018-03-27T09:37:05.386Z,101039.19
2018-03-27T09:39:32.845Z,101039.59
2018-03-27T09:42:00.330Z,101038.03
2018-03-27T09:44:27.863Z,101038.47
2018-03-27T09:46:55.321Z,101034.06
2018-03-27T09:49:22.804Z,101035.59
2018-03-27T09:51:50.290Z,101037.13
2018-03-27T09:54:17.845Z,101031.27
2018-03-27T09:56:45.355Z,101032.66
2018-03-27T09:59:12.833Z,101033.67
2018-03-27T10:01:40.290Z,101030.99
2018-03-27T10:04:07.780Z,101029.62
2018-03-27T10:06:35.284Z,101035.64
2018-03-27T10:09:02.745Z,101031.41
2018-03-27T10:11:30.242Z,101026.34
2018-03-27T10:13:57.714Z,101020.70
2018-03-27T10:16:25.165Z,101019.50
2018-03-27T10:18:52.677Z,101015.91
2018-03-27T10:21:20.140Z,101012.00
2018-03-27T10:23:47.636Z,101004.63
2018-03-27T10:26:15.156Z,101005.64
2018-03-27T10:28:42.715Z,101000.00
2018-03-27T10:31:10.212Z,100996.94
2018-03-27T10:33:37.773Z,100997.73
2018-03-27T10:36:05.277Z,101000.72
2018-03-27T10:38:32.860Z,100999.63
2018-03-27T10:41:00.354Z,100987.45
2018-03-27T10:43:27.809Z,100996.06
2018-03-27T10:45:55.340Z,100992.13
2018-03-27T10:48:22.810Z,100994.52
2018-03-27T10:50:50.258Z,100991.98
2018-03-27T10:53:17.747Z,100992.22
2018-03-27T10:55:45.291Z,100986.48
2018-03-27T10:58:12.749Z,100980.52
2018-03-27T11:00:40.226Z,100983.27
2018-03-27T11:03:07.682Z,100981.94
2018-03-27T11:05:35.163Z,100983.17
2018-03-27T11:08:02.650Z,100989.08
2018-03-27T11:10:30.136Z,100992.41
2018-03-27T11:12:57.603Z,100978.61
2018-03-27T11:15:25.102Z,100986.89
2018-03-27T11:17:52.579Z,100988.39
2018-03-27T11:20:20.049Z,100979.21
2018-03-27T11:22:47.517Z,100978.81
2018-03-27T11:25:15.081Z,100977.45
2018-03-27T11:27:42.551Z,100980.86
2018-03-27T11:30:10.006Z,100980.88
2018-03-27T11:32:37.502Z,100983.45
2018-03-27T11:35:04.958Z,100982.80
2018-03-27T11:37:32.418Z,100985.94
2018-03-27T11:39:59.898Z,100977.73
2018-03-27T11:42:27.350Z,100978.45
2018-03-27T11:44:54.802Z,100973.69
2018-03-27T11:47:22.278Z,100974.08
2018-03-27T11:49:49.830Z,100969.76
2018-03-27T11:52:17.312Z,100967.69
2018-03-27T11:54:44.788Z,100965.95
2018-03-27T11:57:12.246Z,100961.63
2018-03-27T11:59:39.704Z,100963.84
2018-03-27T12:02:07.203Z,100958.69
2018-03-27T12:04:34.658Z,100959.50
2018-03-27T12:07:02.258Z,100963.03
2018-03-27T12:09:29.738Z,100961.58
2018-03-27T12:11:57.198Z,100960.00
2018-03-27T12:14:24.737Z,100950.13
2018-03-27T12:16:52.194Z,100947.84
2018-03-27T12:19:19.654Z,100942.04
2018-03-27T12:21:47.146Z,100942.16
2018-03-27T12:24:14.611Z,100940.09
2018-03-27T12:26:42.072Z,100938.42
2018-03-27T12:29:09.630Z,100932.88
2018-03-27T12:31:37.095Z,100928.43
2018-03-27T12:34:04.651Z,100928.31
2018-03-27T12:36:32.314Z,100928.31
2018-03-27T12:38:59.946Z,100926.16
2018-03-27T12:41:27.444Z,100922.59
2018-03-27T12:43:54.943Z,100921.37
2018-03-27T12:46:22.401Z,100923.65
2018-03-27T12:48:49.861Z,100919.18
2018-03-27T12:51:17.382Z,100916.88
2018-03-27T12:53:44.853Z,100909.50
2018-03-27T12:56:12.320Z,100913.34
2018-03-27T12:58:39.941Z,100910.77
2018-03-27T13:01:07.416Z,100905.38
2018-03-27T13:03:34.867Z,100898.44
2018-03-27T13:06:02.370Z,100900.70
2018-03-27T13:08:29.840Z,100893.73
2018-03-27T13:10:57.306Z,100899.23
2018-03-27T13:13:24.893Z,100893.63
2018-03-27T13:15:52.350Z,100888.42
2018-03-27T13:18:19.925Z,100892.09
2018-03-27T13:20:47.390Z,100891.63
2018-03-27T13:23:14.851Z,100885.93
2018-03-27T13:25:42.382Z,100879.65
2018-03-27T13:28:09.834Z,100884.02
2018-03-27T13:30:37.277Z,100874.42
2018-03-27T13:33:04.734Z,100872.89
2018-03-27T13:35:32.318Z,100880.05
2018-03-27T13:37:59.804Z,100874.06
2018-03-27T13:40:27.318Z,100871.91
2018-03-27T13:42:54.797Z,100864.56
2018-03-27T13:45:22.339Z,100861.26
2018-03-27T13:47:49.813Z,100856.12
2018-03-27T13:50:17.314Z,100856.74
2018-03-27T13:52:44.870Z,100854.66
2018-03-27T13:55:12.323Z,100855.08
2018-03-27T13:57:39.845Z,100851.02
2018-03-27T14:00:07.395Z,100853.68
2018-03-27T14:02:34.847Z,100852.16
2018-03-27T14:05:02.421Z,100839.05
2018-03-27T14:07:29.882Z,100834.67
2018-03-27T14:09:57.377Z,100838.08
2018-03-27T14:12:24.838Z,100830.56
2018-03-27T14:14:52.298Z,100829.16
2018-03-27T14:17:19.785Z,100831.27
2018-03-27T14:19:47.268Z,100828.33
2018-03-27T14:22:15.584Z,100824.63
2018-03-27T14:24:43.082Z,100821.41
2018-03-27T14:27:10.546Z,100819.87
2018-03-27T14:29:38.015Z,100816.52
2018-03-27T14:32:05.498Z,100821.04
2018-03-27T14:34:32.958Z,100815.36
2018-03-27T14:37:00.412Z,100816.36
2018-03-27T14:39:27.899Z,100820.05
2018-03-27T14:41:55.349Z,100819.56
2018-03-27T14:44:22.837Z,100818.02
2018-03-27T14:46:50.365Z,100807.78
2018-03-27T14:49:17.786Z,100808.07
2018-03-27T14:51:45.277Z,100801.72
2018-03-27T14:54:12.838Z,100794.45
2018-03-27T14:56:40.306Z,100799.02
2018-03-27T14:59:07.758Z,100801.08
2018-03-27T15:01:35.243Z,100795.69
2018-03-27T15:04:02.764Z,100791.84
2018-03-27T15:06:30.228Z,100785.52
2018-03-27T15:08:57.712Z,100791.62
2018-03-27T15:11:25.178Z,100785.92
2018-03-27T15:13:52.633Z,100781.17
2018-03-27T15:16:20.133Z,100775.20
2018-03-27T15:18:47.738Z,100781.72
2018-03-27T15:21:15.251Z,100779.63
2018-03-27T15:23:42.840Z,100777.85
2018-03-27T15:26:10.304Z,100770.84
2018-03-27T15:28:37.751Z,100769.23
2018-03-27T15:31:05.266Z,100762.30
2018-03-27T15:33:32.873Z,100765.98
2018-03-27T15:36:00.428Z,100772.14
2018-03-27T15:38:27.890Z,100765.86
2018-03-27T15:40:55.343Z,100761.66
2018-03-27T15:43:22.824Z,100756.05
2018-03-27T15:45:50.294Z,100755.55
2018-03-27T15:48:17.746Z,100751.01
2018-03-27T15:50:45.326Z,100744.31
2018-03-27T15:53:12.777Z,100744.86
2018-03-27T15:55:40.310Z,100736.91
2018-03-27T15:58:07.785Z,100733.22
2018-03-27T16:00:35.355Z,100737.20
2018-03-27T16:03:02.863Z,100734.59
2018-03-27T16:05:30.378Z,100728.21
2018-03-27T16:07:57.940Z,100722.77
2018-03-27T16:10:25.414Z,100733.17
2018-03-27T16:12:52.878Z,100727.66
2018-03-27T16:15:20.366Z,100720.00
2018-03-27T16:17:47.899Z,100717.91
2018-03-27T16:20:15.358Z,100714.36
2018-03-27T16:22:42.825Z,100710.54
2018-03-27T16:25:10.291Z,100723.01
2018-03-27T16:27:37.783Z,100718.08
2018-03-27T16:30:05.310Z,100713.44
2018-03-27T16:32:32.766Z,100720.00
2018-03-27T16:35:00.281Z,100712.72
2018-03-27T16:37:27.776Z,100720.71
2018-03-27T16:39:55.226Z,100713.06
2018-03-27T16:42:22.706Z,100722.06
2018-03-27T16:44:50.158Z,100717.77
2018-03-27T16:47:17.606Z,100721.20
2018-03-27T16:49:45.096Z,100718.32
2018-03-27T16:52:12.569Z,100717.19
2018-03-27T16:54:40.027Z,100715.42
2018-03-27T16:57:07.591Z,100717.16
2018-03-27T16:59:35.057Z,100722.02
2018-03-27T17:02:02.518Z,100722.25
2018-03-27T17:04:30.066Z,100724.63
2018-03-27T17:06:57.515Z,100725.53
2018-03-27T17:09:25.001Z,100726.14
2018-03-27T17:11:52.539Z,100726.25
2018-03-27T17:14:20.002Z,100722.63
2018-03-27T17:16:47.458Z,100724.97
2018-03-27T17:19:14.964Z,100725.17
2018-03-27T17:21:42.466Z,100713.73
2018-03-27T17:24:10.058Z,100721.18
2018-03-27T17:26:37.526Z,100717.34
2018-03-27T17:29:04.986Z,100714.20
2018-03-27T17:31:32.523Z,100722.46
2018-03-27T17:33:59.964Z,100719.25
2018-03-27T17:36:27.674Z,100717.12
2018-03-27T17:38:55.158Z,100709.34
2018-03-27T17:41:22.644Z,100713.83
2018-03-27T17:43:50.102Z,100708.22
2018-03-27T17:46:17.595Z,100708.58
2018-03-27T17:48:45.079Z,100705.14
2018-03-27T17:51:12.580Z,100707.19
2018-03-27T17:53:40.340Z,100711.11
2018-03-27T17:56:07.799Z,100711.33
2018-03-27T17:58:35.268Z,100711.11
2018-03-27T18:01:02.773Z,100712.92
2018-03-27T18:03:30.234Z,100708.36
2018-03-27T18:05:57.684Z,100712.65
2018-03-27T18:08:25.156Z,100710.66
2018-03-27T18:10:52.608Z,100710.53
2018-03-27T18:13:20.146Z,100723.22
2018-03-27T18:15:47.607Z,100716.15
2018-03-27T18:18:15.070Z,100718.23
2018-03-27T18:20:42.543Z,100713.91
2018-03-27T18:23:10.030Z,100705.32
2018-03-27T18:25:37.483Z,100707.59
2018-03-27T18:28:05.551Z,100707.65
2018-03-27T18:30:33.022Z,100708.52
2018-03-27T18:33:00.474Z,100712.84
2018-03-27T18:35:28.033Z,100713.84
2018-03-27T18:37:55.494Z,100710.61
2018-03-27T18:40:23.049Z,100711.85
2018-03-27T18:42:50.523Z,100704.33
2018-03-27T18:45:18.006Z,100704.54
2018-03-27T18:47:45.474Z,100703.36
2018-03-27T18:50:12.942Z,100694.20
2018-03-27T18:52:41.162Z,100706.81
2018-03-27T18:55:08.632Z,100704.41
2018-03-27T18:57:36.367Z,100705.45
2018-03-27T19:00:03.964Z,100704.17
2018-03-27T19:02:31.447Z,100714.25
2018-03-27T19:04:58.955Z,100710.09
2018-03-27T19:07:26.419Z,100711.39
2018-03-27T19:09:53.875Z,100712.02
2018-03-27T19:12:21.354Z,100713.31
2018-03-27T19:14:48.846Z,100711.71
2018-03-27T19:17:17.164Z,100712.75
2018-03-27T19:19:44.643Z,100705.39
2018-03-27T19:22:12.100Z,100711.85
2018-03-27T19:24:39.566Z,100716.27
2018-03-27T19:27:07.072Z,100716.55
2018-03-27T19:29:34.546Z,100719.73
2018-03-27T19:32:02.765Z,100725.09
2018-03-27T19:34:30.257Z,100732.41
2018-03-27T19:36:58.657Z,100728.34
2018-03-27T19:39:26.118Z,100724.06
2018-03-27T19:41:53.662Z,100719.21
2018-03-27T19:44:21.239Z,100715.19
2018-03-27T19:46:49.694Z,100711.16
2018-03-27T19:49:17.175Z,100714.19
2018-03-27T19:51:44.644Z,100715.06
2018-03-27T19:54:12.173Z,100709.84
2018-03-27T19:56:39.659Z,100699.08
2018-03-27T19:59:07.177Z,100694.70
2018-03-27T20:01:34.671Z,100695.95
2018-03-27T20:04:02.147Z,100692.73
2018-03-27T20:06:29.619Z,100689.96
2018-03-27T20:08:57.117Z,100683.12
2018-03-27T20:11:24.584Z,100682.61
2018-03-27T20:13:52.040Z,100690.63
2018-03-27T20:16:19.541Z,100692.35
2018-03-27T20:18:47.063Z,100691.92
2018-03-27T20:21:14.564Z,100689.13
2018-03-27T20:23:42.067Z,100694.63
2018-03-27T20:26:09.542Z,100688.14
2018-03-27T20:28:37.048Z,100690.48
2018-03-27T20:31:04.607Z,100683.20
2018-03-27T20:33:32.075Z,100683.03
2018-03-27T20:35:59.592Z,100677.09
2018-03-27T20:38:27.042Z,100677.52
2018-03-27T20:40:54.522Z,100673.77
2018-03-27T20:43:22.051Z,100673.39
2018-03-27T20:45:49.502Z,100667.37
2018-03-27T20:48:17.000Z,100668.92
2018-03-27T20:50:44.490Z,100668.30
2018-03-27T20:53:11.946Z,100672.59
2018-03-27T20:55:39.431Z,100663.87
2018-03-27T20:58:06.982Z,100664.45
2018-03-27T21:00:34.597Z,100665.48
2018-03-27T21:03:02.154Z,100662.66
2018-03-27T21:05:29.654Z,100659.64
2018-03-27T21:07:57.135Z,100659.70
2018-03-27T21:10:24.585Z,100651.14
2018-03-27T21:12:52.115Z,100650.39
2018-03-27T21:15:19.609Z,100653.69
2018-03-27T21:17:47.057Z,100649.95
2018-03-27T21:20:14.611Z,100649.12
2018-03-27T21:22:42.095Z,100651.16
2018-03-27T21:25:09.603Z,100646.89
2018-03-27T21:27:37.080Z,100643.18
2018-03-27T21:30:04.590Z,100643.97
2018-03-27T21:32:32.121Z,100647.50
2018-03-27T21:34:59.597Z,100641.34
2018-03-27T21:37:27.063Z,100636.44
2018-03-27T21:39:54.560Z,100633.66
2018-03-27T21:42:22.034Z,100629.64
2018-03-27T21:44:49.496Z,100633.59
2018-03-27T21:47:16.978Z,100632.03
2018-03-27T21:49:44.471Z,100626.91
2018-03-27T21:52:12.085Z,100619.56
2018-03-27T21:54:39.627Z,100610.73
2018-03-27T21:57:07.205Z,100620.34
2018-03-27T21:59:34.677Z,100618.59
2018-03-27T22:02:02.204Z,100618.88
2018-03-27T22:04:29.769Z,100620.28
2018-03-27T22:06:57.313Z,100620.98
2018-03-27T22:09:24.828Z,100618.59
2018-03-27T22:11:52.376Z,100603.77
2018-03-27T22:14:19.835Z,100603.90
2018-03-27T22:16:47.403Z,100595.22
2018-03-27T22:19:14.959Z,100589.59
2018-03-27T22:21:42.425Z,100592.41
2018-03-27T22:24:09.887Z,100605.85
2018-03-27T22:26:37.374Z,100601.59
2018-03-27T22:29:04.893Z,100601.20
2018-03-27T22:31:32.398Z,100598.66
2018-03-27T22:33:59.924Z,100597.36
2018-03-27T22:36:27.379Z,100593.14
2018-03-27T22:38:54.922Z,100590.36
2018-03-27T22:41:22.419Z,100583.84
2018-03-27T22:43:49.874Z,100589.31
2018-03-27T22:46:17.334Z,100582.22
2018-03-27T22:48:44.826Z,100577.11
2018-03-27T22:51:12.294Z,100579.55
2018-03-27T22:53:39.815Z,100574.02
2018-03-27T22:56:07.321Z,100569.08
2018-03-27T22:58:34.790Z,100565.17
2018-03-27T23:01:02.245Z,100560.69
2018-03-27T23:03:29.758Z,100553.31
2018-03-27T23:05:57.306Z,100555.70
2018-03-27T23:08:24.870Z,100553.81
2018-03-27T23:10:52.427Z,100552.48
2018-03-27T23:13:19.986Z,100547.39
2018-03-27T23:15:47.441Z,100541.95
2018-03-27T23:18:15.003Z,100548.08
2018-03-27T23:20:42.465Z,100538.86
2018-03-27T23:23:09.943Z,100545.16
2018-03-27T23:25:37.427Z,100547.28
2018-03-27T23:28:04.887Z,100539.66
2018-03-27T23:30:32.349Z,100539.13
2018-03-27T23:32:59.835Z,100537.20
2018-03-27T23:35:29.355Z,100537.15
2018-03-27T23:37:56.886Z,100543.02
2018-03-27T23:40:24.374Z,100543.16
2018-03-27T23:42:51.838Z,100545.75
2018-03-27T23:45:19.290Z,100547.53
2018-03-27T23:47:46.785Z,100537.48
2018-03-27T23:50:14.249Z,100539.21
2018-03-27T23:52:41.721Z,100539.77
2018-03-27T23:55:09.227Z,100533.91
2018-03-27T23:57:36.685Z,100530.98
